sensor_id;sensor_type;location;lat;lon;timestamp;P1;durP1;ratioP1;P2;durP2;ratioP2
57567;SDS011;43403;51.948;5.922;2024-02-21T00:01:14;28.40;;;12.43;;
57567;SDS011;43403;51.948;5.922;2024-02-21T00:03:41;34.33;;;11.50;;
57567;SDS011;43403;51.948;5.922;2024-02-21T00:06:07;21.95;;;11.30;;
57567;SDS011;43403;51.948;5.922;2024-02-21T00:08:33;26.67;;;11.18;;
57567;SDS011;43403;51.948;5.922;2024-02-21T00:11:00;28.13;;;11.70;;
57567;SDS011;43403;51.948;5.922;2024-02-21T00:13:26;24.88;;;11.45;;
57567;SDS011;43403;51.948;5.922;2024-02-21T00:15:53;24.30;;;11.70;;
57567;SDS011;43403;51.948;5.922;2024-02-21T00:18:20;25.48;;;10.90;;
57567;SDS011;43403;51.948;5.922;2024-02-21T00:20:46;25.23;;;11.00;;
57567;SDS011;43403;51.948;5.922;2024-02-21T00:23:12;32.03;;;11.20;;
57567;SDS011;43403;51.948;5.922;2024-02-21T00:25:39;23.52;;;10.48;;
57567;SDS011;43403;51.948;5.922;2024-02-21T00:28:05;25.95;;;10.88;;
57567;SDS011;43403;51.948;5.922;2024-02-21T00:30:32;25.30;;;11.23;;
57567;SDS011;43403;51.948;5.922;2024-02-21T00:32:58;23.73;;;11.18;;
57567;SDS011;43403;51.948;5.922;2024-02-21T00:35:25;28.20;;;12.50;;
57567;SDS011;43403;51.948;5.922;2024-02-21T00:37:52;21.77;;;10.98;;
57567;SDS011;43403;51.948;5.922;2024-02-21T00:40:18;31.85;;;10.90;;
57567;SDS011;43403;51.948;5.922;2024-02-21T00:42:46;22.58;;;10.70;;
57567;SDS011;43403;51.948;5.922;2024-02-21T00:45:13;24.20;;;11.05;;
57567;SDS011;43403;51.948;5.922;2024-02-21T00:47:39;23.92;;;10.60;;
57567;SDS011;43403;51.948;5.922;2024-02-21T00:50:06;21.23;;;10.38;;
57567;SDS011;43403;51.948;5.922;2024-02-21T00:52:35;24.10;;;11.57;;
57567;SDS011;43403;51.948;5.922;2024-02-21T00:55:02;24.02;;;11.13;;
57567;SDS011;43403;51.948;5.922;2024-02-21T00:57:28;18.77;;;10.25;;
57567;SDS011;43403;51.948;5.922;2024-02-21T00:59:55;24.45;;;10.23;;
57567;SDS011;43403;51.948;5.922;2024-02-21T01:02:21;23.50;;;10.88;;
57567;SDS011;43403;51.948;5.922;2024-02-21T01:04:48;21.77;;;10.68;;
57567;SDS011;43403;51.948;5.922;2024-02-21T01:07:14;24.85;;;10.15;;
57567;SDS011;43403;51.948;5.922;2024-02-21T01:09:41;23.58;;;11.15;;
57567;SDS011;43403;51.948;5.922;2024-02-21T01:12:07;29.77;;;11.30;;
57567;SDS011;43403;51.948;5.922;2024-02-21T01:14:33;23.23;;;10.40;;
57567;SDS011;43403;51.948;5.922;2024-02-21T01:17:00;20.27;;;10.60;;
57567;SDS011;43403;51.948;5.922;2024-02-21T01:19:27;23.27;;;10.63;;
57567;SDS011;43403;51.948;5.922;2024-02-21T01:21:54;20.77;;;9.80;;
57567;SDS011;43403;51.948;5.922;2024-02-21T01:24:20;32.13;;;11.38;;
57567;SDS011;43403;51.948;5.922;2024-02-21T01:26:47;23.40;;;10.48;;
57567;SDS011;43403;51.948;5.922;2024-02-21T01:29:13;18.40;;;8.85;;
57567;SDS011;43403;51.948;5.922;2024-02-21T01:31:39;20.80;;;9.65;;
57567;SDS011;43403;51.948;5.922;2024-02-21T01:34:06;19.55;;;9.93;;
57567;SDS011;43403;51.948;5.922;2024-02-21T01:36:32;18.65;;;9.68;;
57567;SDS011;43403;51.948;5.922;2024-02-21T01:38:59;21.77;;;9.98;;
57567;SDS011;43403;51.948;5.922;2024-02-21T01:41:25;21.58;;;9.80;;
57567;SDS011;43403;51.948;5.922;2024-02-21T01:43:51;22.73;;;10.18;;
57567;SDS011;43403;51.948;5.922;2024-02-21T01:46:18;21.10;;;10.45;;
57567;SDS011;43403;51.948;5.922;2024-02-21T01:48:45;24.50;;;10.80;;
57567;SDS011;43403;51.948;5.922;2024-02-21T01:51:12;27.43;;;10.10;;
57567;SDS011;43403;51.948;5.922;2024-02-21T01:53:42;21.98;;;10.05;;
57567;SDS011;43403;51.948;5.922;2024-02-21T01:56:08;19.58;;;10.02;;
57567;SDS011;43403;51.948;5.922;2024-02-21T01:58:36;19.80;;;9.75;;
57567;SDS011;43403;51.948;5.922;2024-02-21T02:01:06;27.42;;;10.32;;
57567;SDS011;43403;51.948;5.922;2024-02-21T02:03:33;25.95;;;11.32;;
57567;SDS011;43403;51.948;5.922;2024-02-21T02:05:59;25.70;;;11.05;;
57567;SDS011;43403;51.948;5.922;2024-02-21T02:08:26;20.50;;;10.25;;
57567;SDS011;43403;51.948;5.922;2024-02-21T02:10:52;19.70;;;10.02;;
57567;SDS011;43403;51.948;5.922;2024-02-21T02:13:19;27.73;;;9.98;;
57567;SDS011;43403;51.948;5.922;2024-02-21T02:15:49;24.30;;;11.02;;
57567;SDS011;43403;51.948;5.922;2024-02-21T02:18:16;20.92;;;10.40;;
57567;SDS011;43403;51.948;5.922;2024-02-21T02:20:46;19.70;;;9.07;;
57567;SDS011;43403;51.948;5.922;2024-02-21T02:23:26;22.23;;;10.88;;
57567;SDS011;43403;51.948;5.922;2024-02-21T02:25:54;22.85;;;10.60;;
57567;SDS011;43403;51.948;5.922;2024-02-21T02:28:21;21.70;;;11.55;;
57567;SDS011;43403;51.948;5.922;2024-02-21T02:30:48;24.05;;;10.70;;
57567;SDS011;43403;51.948;5.922;2024-02-21T02:33:15;17.52;;;10.10;;
57567;SDS011;43403;51.948;5.922;2024-02-21T02:35:43;22.10;;;10.13;;
57567;SDS011;43403;51.948;5.922;2024-02-21T02:38:09;24.30;;;11.27;;
57567;SDS011;43403;51.948;5.922;2024-02-21T02:40:38;22.63;;;10.40;;
57567;SDS011;43403;51.948;5.922;2024-02-21T02:43:04;22.00;;;10.68;;
57567;SDS011;43403;51.948;5.922;2024-02-21T02:45:31;20.35;;;9.40;;
57567;SDS011;43403;51.948;5.922;2024-02-21T02:47:58;23.67;;;9.93;;
57567;SDS011;43403;51.948;5.922;2024-02-21T02:50:25;25.30;;;10.75;;
57567;SDS011;43403;51.948;5.922;2024-02-21T02:52:55;24.70;;;9.07;;
57567;SDS011;43403;51.948;5.922;2024-02-21T02:55:22;19.70;;;10.45;;
57567;SDS011;43403;51.948;5.922;2024-02-21T02:57:49;25.00;;;10.27;;
57567;SDS011;43403;51.948;5.922;2024-02-21T03:00:15;22.08;;;9.85;;
57567;SDS011;43403;51.948;5.922;2024-02-21T03:02:43;19.35;;;9.27;;
57567;SDS011;43403;51.948;5.922;2024-02-21T03:05:19;22.70;;;9.63;;
57567;SDS011;43403;51.948;5.922;2024-02-21T03:07:46;17.20;;;8.90;;
57567;SDS011;43403;51.948;5.922;2024-02-21T03:10:13;25.08;;;10.25;;
57567;SDS011;43403;51.948;5.922;2024-02-21T03:12:40;20.48;;;9.63;;
57567;SDS011;43403;51.948;5.922;2024-02-21T03:15:06;25.88;;;9.65;;
57567;SDS011;43403;51.948;5.922;2024-02-21T03:17:33;25.42;;;9.75;;
57567;SDS011;43403;51.948;5.922;2024-02-21T03:20:03;20.75;;;9.25;;
57567;SDS011;43403;51.948;5.922;2024-02-21T03:22:32;25.02;;;10.50;;
57567;SDS011;43403;51.948;5.922;2024-02-21T03:25:01;18.88;;;9.10;;
57567;SDS011;43403;51.948;5.922;2024-02-21T03:27:28;24.80;;;9.18;;
57567;SDS011;43403;51.948;5.922;2024-02-21T03:29:54;18.23;;;8.63;;
57567;SDS011;43403;51.948;5.922;2024-02-21T03:32:20;19.48;;;8.52;;
57567;SDS011;43403;51.948;5.922;2024-02-21T03:34:47;24.92;;;9.55;;
57567;SDS011;43403;51.948;5.922;2024-02-21T03:37:13;19.67;;;7.85;;
57567;SDS011;43403;51.948;5.922;2024-02-21T03:39:40;18.80;;;8.20;;
57567;SDS011;43403;51.948;5.922;2024-02-21T03:42:07;16.80;;;7.85;;
57567;SDS011;43403;51.948;5.922;2024-02-21T03:44:33;18.10;;;7.18;;
57567;SDS011;43403;51.948;5.922;2024-02-21T03:47:00;25.52;;;8.60;;
57567;SDS011;43403;51.948;5.922;2024-02-21T03:49:26;19.15;;;7.93;;
57567;SDS011;43403;51.948;5.922;2024-02-21T03:51:53;19.17;;;7.88;;
57567;SDS011;43403;51.948;5.922;2024-02-21T03:54:19;18.25;;;7.10;;
57567;SDS011;43403;51.948;5.922;2024-02-21T03:56:46;18.00;;;6.97;;
57567;SDS011;43403;51.948;5.922;2024-02-21T03:59:15;18.67;;;7.55;;
57567;SDS011;43403;51.948;5.922;2024-02-21T04:01:41;14.88;;;6.60;;
57567;SDS011;43403;51.948;5.922;2024-02-21T04:04:09;13.63;;;6.47;;
57567;SDS011;43403;51.948;5.922;2024-02-21T04:06:35;17.88;;;6.97;;
57567;SDS011;43403;51.948;5.922;2024-02-21T04:09:02;14.77;;;6.45;;
57567;SDS011;43403;51.948;5.922;2024-02-21T04:11:29;16.90;;;6.28;;
57567;SDS011;43403;51.948;5.922;2024-02-21T04:13:56;14.77;;;6.97;;
57567;SDS011;43403;51.948;5.922;2024-02-21T04:16:22;16.83;;;6.50;;
57567;SDS011;43403;51.948;5.922;2024-02-21T04:18:49;18.05;;;6.50;;
57567;SDS011;43403;51.948;5.922;2024-02-21T04:21:16;14.80;;;6.03;;
57567;SDS011;43403;51.948;5.922;2024-02-21T04:23:43;13.82;;;6.10;;
57567;SDS011;43403;51.948;5.922;2024-02-21T04:26:10;15.23;;;6.05;;
57567;SDS011;43403;51.948;5.922;2024-02-21T04:28:36;14.20;;;6.10;;
57567;SDS011;43403;51.948;5.922;2024-02-21T04:31:02;15.30;;;6.88;;
57567;SDS011;43403;51.948;5.922;2024-02-21T04:33:29;18.17;;;5.93;;
57567;SDS011;43403;51.948;5.922;2024-02-21T04:35:55;16.27;;;6.45;;
57567;SDS011;43403;51.948;5.922;2024-02-21T04:38:22;16.90;;;6.40;;
57567;SDS011;43403;51.948;5.922;2024-02-21T04:40:48;12.15;;;5.75;;
57567;SDS011;43403;51.948;5.922;2024-02-21T04:43:15;17.67;;;6.13;;
57567;SDS011;43403;51.948;5.922;2024-02-21T04:45:41;14.77;;;5.35;;
57567;SDS011;43403;51.948;5.922;2024-02-21T04:48:08;16.65;;;6.05;;
57567;SDS011;43403;51.948;5.922;2024-02-21T04:50:34;13.77;;;5.68;;
57567;SDS011;43403;51.948;5.922;2024-02-21T04:53:01;13.30;;;5.60;;
57567;SDS011;43403;51.948;5.922;2024-02-21T04:55:27;15.15;;;5.95;;
57567;SDS011;43403;51.948;5.922;2024-02-21T04:57:54;13.90;;;6.53;;
57567;SDS011;43403;51.948;5.922;2024-02-21T05:00:20;14.27;;;6.80;;
57567;SDS011;43403;51.948;5.922;2024-02-21T05:02:46;16.40;;;6.80;;
57567;SDS011;43403;51.948;5.922;2024-02-21T05:05:13;10.23;;;5.82;;
57567;SDS011;43403;51.948;5.922;2024-02-21T05:07:41;14.32;;;6.22;;
57567;SDS011;43403;51.948;5.922;2024-02-21T05:10:08;15.15;;;7.10;;
57567;SDS011;43403;51.948;5.922;2024-02-21T05:12:35;14.43;;;6.68;;
57567;SDS011;43403;51.948;5.922;2024-02-21T05:15:02;17.40;;;7.05;;
57567;SDS011;43403;51.948;5.922;2024-02-21T05:17:29;15.40;;;7.50;;
57567;SDS011;43403;51.948;5.922;2024-02-21T05:19:55;17.73;;;7.38;;
57567;SDS011;43403;51.948;5.922;2024-02-21T05:22:22;15.05;;;8.02;;
57567;SDS011;43403;51.948;5.922;2024-02-21T05:24:48;17.13;;;7.78;;
57567;SDS011;43403;51.948;5.922;2024-02-21T05:27:15;16.77;;;6.85;;
57567;SDS011;43403;51.948;5.922;2024-02-21T05:29:41;12.43;;;7.55;;
57567;SDS011;43403;51.948;5.922;2024-02-21T05:32:08;15.63;;;7.50;;
57567;SDS011;43403;51.948;5.922;2024-02-21T05:34:34;19.88;;;8.30;;
57567;SDS011;43403;51.948;5.922;2024-02-21T05:37:01;20.63;;;8.30;;
57567;SDS011;43403;51.948;5.922;2024-02-21T05:39:27;18.33;;;8.88;;
57567;SDS011;43403;51.948;5.922;2024-02-21T05:41:55;15.45;;;8.32;;
57567;SDS011;43403;51.948;5.922;2024-02-21T05:44:22;13.93;;;7.60;;
57567;SDS011;43403;51.948;5.922;2024-02-21T05:46:48;18.38;;;7.35;;
57567;SDS011;43403;51.948;5.922;2024-02-21T05:49:15;15.65;;;7.60;;
57567;SDS011;43403;51.948;5.922;2024-02-21T05:51:42;13.02;;;7.15;;
57567;SDS011;43403;51.948;5.922;2024-02-21T05:54:08;17.33;;;8.30;;
57567;SDS011;43403;51.948;5.922;2024-02-21T05:56:34;14.30;;;8.18;;
57567;SDS011;43403;51.948;5.922;2024-02-21T05:59:01;17.30;;;8.35;;
57567;SDS011;43403;51.948;5.922;2024-02-21T06:01:27;21.08;;;7.88;;
57567;SDS011;43403;51.948;5.922;2024-02-21T06:03:54;18.90;;;8.93;;
57567;SDS011;43403;51.948;5.922;2024-02-21T06:06:21;14.73;;;7.93;;
57567;SDS011;43403;51.948;5.922;2024-02-21T06:08:51;19.23;;;8.52;;
57567;SDS011;43403;51.948;5.922;2024-02-21T06:11:18;20.75;;;8.70;;
57567;SDS011;43403;51.948;5.922;2024-02-21T06:13:44;19.80;;;7.63;;
57567;SDS011;43403;51.948;5.922;2024-02-21T06:16:11;17.10;;;6.97;;
57567;SDS011;43403;51.948;5.922;2024-02-21T06:18:37;14.15;;;7.38;;
57567;SDS011;43403;51.948;5.922;2024-02-21T06:21:04;16.15;;;6.80;;
57567;SDS011;43403;51.948;5.922;2024-02-21T06:23:30;18.95;;;7.57;;
57567;SDS011;43403;51.948;5.922;2024-02-21T06:25:57;15.90;;;7.15;;
57567;SDS011;43403;51.948;5.922;2024-02-21T06:28:23;15.90;;;7.22;;
57567;SDS011;43403;51.948;5.922;2024-02-21T06:30:50;16.42;;;7.03;;
57567;SDS011;43403;51.948;5.922;2024-02-21T06:33:16;15.90;;;7.18;;
57567;SDS011;43403;51.948;5.922;2024-02-21T06:35:43;10.57;;;5.88;;
57567;SDS011;43403;51.948;5.922;2024-02-21T06:38:12;12.93;;;7.00;;
57567;SDS011;43403;51.948;5.922;2024-02-21T06:40:39;17.85;;;6.88;;
57567;SDS011;43403;51.948;5.922;2024-02-21T06:43:06;16.50;;;6.82;;
57567;SDS011;43403;51.948;5.922;2024-02-21T06:45:33;13.35;;;6.53;;
57567;SDS011;43403;51.948;5.922;2024-02-21T06:47:59;17.45;;;7.78;;
57567;SDS011;43403;51.948;5.922;2024-02-21T06:50:26;18.80;;;6.50;;
57567;SDS011;43403;51.948;5.922;2024-02-21T06:52:53;18.88;;;7.10;;
57567;SDS011;43403;51.948;5.922;2024-02-21T06:55:19;15.43;;;6.70;;
57567;SDS011;43403;51.948;5.922;2024-02-21T06:57:46;20.65;;;7.13;;
57567;SDS011;43403;51.948;5.922;2024-02-21T07:00:14;17.17;;;7.57;;
57567;SDS011;43403;51.948;5.922;2024-02-21T07:02:41;14.73;;;7.97;;
57567;SDS011;43403;51.948;5.922;2024-02-21T07:05:07;19.25;;;7.63;;
57567;SDS011;43403;51.948;5.922;2024-02-21T07:07:34;21.42;;;7.97;;
57567;SDS011;43403;51.948;5.922;2024-02-21T07:10:01;16.58;;;6.30;;
57567;SDS011;43403;51.948;5.922;2024-02-21T07:12:28;23.85;;;7.63;;
57567;SDS011;43403;51.948;5.922;2024-02-21T07:14:54;18.67;;;7.10;;
57567;SDS011;43403;51.948;5.922;2024-02-21T07:17:20;14.77;;;6.85;;
57567;SDS011;43403;51.948;5.922;2024-02-21T07:19:47;20.33;;;7.22;;
57567;SDS011;43403;51.948;5.922;2024-02-21T07:22:13;14.27;;;7.05;;
57567;SDS011;43403;51.948;5.922;2024-02-21T07:24:40;15.23;;;7.20;;
57567;SDS011;43403;51.948;5.922;2024-02-21T07:27:06;13.02;;;6.88;;
57567;SDS011;43403;51.948;5.922;2024-02-21T07:29:33;16.75;;;7.68;;
57567;SDS011;43403;51.948;5.922;2024-02-21T07:31:59;23.10;;;7.88;;
57567;SDS011;43403;51.948;5.922;2024-02-21T07:34:26;16.13;;;6.97;;
57567;SDS011;43403;51.948;5.922;2024-02-21T07:36:52;11.90;;;6.50;;
57567;SDS011;43403;51.948;5.922;2024-02-21T07:39:19;15.60;;;6.78;;
57567;SDS011;43403;51.948;5.922;2024-02-21T07:41:45;22.17;;;7.20;;
57567;SDS011;43403;51.948;5.922;2024-02-21T07:44:13;13.57;;;6.03;;
57567;SDS011;43403;51.948;5.922;2024-02-21T07:46:39;15.60;;;6.38;;
57567;SDS011;43403;51.948;5.922;2024-02-21T07:49:05;19.83;;;8.02;;
57567;SDS011;43403;51.948;5.922;2024-02-21T07:51:32;12.48;;;6.93;;
57567;SDS011;43403;51.948;5.922;2024-02-21T07:53:58;13.48;;;6.55;;
57567;SDS011;43403;51.948;5.922;2024-02-21T07:56:27;15.60;;;6.32;;
57567;SDS011;43403;51.948;5.922;2024-02-21T07:58:53;15.90;;;7.03;;
57567;SDS011;43403;51.948;5.922;2024-02-21T08:01:20;21.75;;;6.93;;
57567;SDS011;43403;51.948;5.922;2024-02-21T08:03:47;16.17;;;7.18;;
57567;SDS011;43403;51.948;5.922;2024-02-21T08:06:13;16.92;;;7.70;;
57567;SDS011;43403;51.948;5.922;2024-02-21T08:08:40;18.33;;;7.03;;
57567;SDS011;43403;51.948;5.922;2024-02-21T08:11:06;16.15;;;7.53;;
57567;SDS011;43403;51.948;5.922;2024-02-21T08:13:33;13.90;;;6.82;;
57567;SDS011;43403;51.948;5.922;2024-02-21T08:16:00;17.00;;;7.45;;
57567;SDS011;43403;51.948;5.922;2024-02-21T08:18:26;17.45;;;8.23;;
57567;SDS011;43403;51.948;5.922;2024-02-21T08:20:53;19.88;;;7.55;;
57567;SDS011;43403;51.948;5.922;2024-02-21T08:23:22;19.15;;;8.38;;
57567;SDS011;43403;51.948;5.922;2024-02-21T08:25:49;19.52;;;7.93;;
57567;SDS011;43403;51.948;5.922;2024-02-21T08:28:15;14.45;;;7.20;;
57567;SDS011;43403;51.948;5.922;2024-02-21T08:30:42;15.32;;;7.38;;
57567;SDS011;43403;51.948;5.922;2024-02-21T08:33:17;15.20;;;7.93;;
57567;SDS011;43403;51.948;5.922;2024-02-21T08:35:43;16.25;;;8.07;;
57567;SDS011;43403;51.948;5.922;2024-02-21T08:38:10;17.80;;;8.20;;
57567;SDS011;43403;51.948;5.922;2024-02-21T08:40:36;15.85;;;7.97;;
57567;SDS011;43403;51.948;5.922;2024-02-21T08:43:03;19.65;;;7.65;;
57567;SDS011;43403;51.948;5.922;2024-02-21T08:45:30;14.68;;;8.20;;
57567;SDS011;43403;51.948;5.922;2024-02-21T08:47:56;20.70;;;8.02;;
57567;SDS011;43403;51.948;5.922;2024-02-21T08:50:23;15.73;;;9.25;;
57567;SDS011;43403;51.948;5.922;2024-02-21T08:52:54;16.42;;;7.50;;
57567;SDS011;43403;51.948;5.922;2024-02-21T08:55:21;13.70;;;7.20;;
57567;SDS011;43403;51.948;5.922;2024-02-21T08:57:48;12.93;;;6.63;;
57567;SDS011;43403;51.948;5.922;2024-02-21T09:00:15;13.55;;;6.70;;
57567;SDS011;43403;51.948;5.922;2024-02-21T09:02:41;12.02;;;7.10;;
57567;SDS011;43403;51.948;5.922;2024-02-21T09:05:11;16.13;;;8.27;;
57567;SDS011;43403;51.948;5.922;2024-02-21T09:07:38;13.35;;;6.97;;
57567;SDS011;43403;51.948;5.922;2024-02-21T09:10:05;13.90;;;6.65;;
57567;SDS011;43403;51.948;5.922;2024-02-21T09:12:31;15.63;;;7.25;;
57567;SDS011;43403;51.948;5.922;2024-02-21T09:14:57;14.75;;;7.32;;
57567;SDS011;43403;51.948;5.922;2024-02-21T09:17:24;17.75;;;7.78;;
57567;SDS011;43403;51.948;5.922;2024-02-21T09:19:51;15.80;;;6.45;;
57567;SDS011;43403;51.948;5.922;2024-02-21T09:22:18;12.75;;;6.18;;
57567;SDS011;43403;51.948;5.922;2024-02-21T09:24:45;17.25;;;7.70;;
57567;SDS011;43403;51.948;5.922;2024-02-21T09:27:11;13.52;;;7.00;;
57567;SDS011;43403;51.948;5.922;2024-02-21T09:29:38;11.23;;;6.25;;
57567;SDS011;43403;51.948;5.922;2024-02-21T09:32:06;12.18;;;6.55;;
57567;SDS011;43403;51.948;5.922;2024-02-21T09:34:32;13.82;;;6.18;;
57567;SDS011;43403;51.948;5.922;2024-02-21T09:36:59;15.18;;;6.78;;
57567;SDS011;43403;51.948;5.922;2024-02-21T09:39:26;11.45;;;5.70;;
57567;SDS011;43403;51.948;5.922;2024-02-21T09:41:59;12.32;;;6.20;;
57567;SDS011;43403;51.948;5.922;2024-02-21T09:44:31;14.02;;;5.93;;
57567;SDS011;43403;51.948;5.922;2024-02-21T09:47:02;10.65;;;6.20;;
57567;SDS011;43403;51.948;5.922;2024-02-21T09:49:32;13.73;;;5.72;;
57567;SDS011;43403;51.948;5.922;2024-02-21T09:52:03;13.03;;;5.80;;
57567;SDS011;43403;51.948;5.922;2024-02-21T09:54:30;10.45;;;5.97;;
57567;SDS011;43403;51.948;5.922;2024-02-21T09:56:59;10.80;;;5.43;;
57567;SDS011;43403;51.948;5.922;2024-02-21T09:59:30;10.38;;;5.68;;
57567;SDS011;43403;51.948;5.922;2024-02-21T10:01:57;9.88;;;5.07;;
57567;SDS011;43403;51.948;5.922;2024-02-21T10:04:25;12.48;;;6.32;;
57567;SDS011;43403;51.948;5.922;2024-02-21T10:06:53;15.05;;;6.30;;
57567;SDS011;43403;51.948;5.922;2024-02-21T10:09:20;11.93;;;6.07;;
57567;SDS011;43403;51.948;5.922;2024-02-21T10:11:49;10.25;;;5.50;;
57567;SDS011;43403;51.948;5.922;2024-02-21T10:14:16;13.10;;;5.83;;
57567;SDS011;43403;51.948;5.922;2024-02-21T10:16:48;10.93;;;6.30;;
57567;SDS011;43403;51.948;5.922;2024-02-21T10:19:18;14.80;;;5.97;;
57567;SDS011;43403;51.948;5.922;2024-02-21T10:22:01;12.20;;;5.95;;
57567;SDS011;43403;51.948;5.922;2024-02-21T10:24:30;11.10;;;5.45;;
57567;SDS011;43403;51.948;5.922;2024-02-21T10:27:01;10.38;;;5.78;;
57567;SDS011;43403;51.948;5.922;2024-02-21T10:29:32;8.90;;;5.47;;
57567;SDS011;43403;51.948;5.922;2024-02-21T10:32:05;9.23;;;5.50;;
57567;SDS011;43403;51.948;5.922;2024-02-21T10:34:33;9.75;;;5.82;;
57567;SDS011;43403;51.948;5.922;2024-02-21T10:37:03;10.30;;;5.20;;
57567;SDS011;43403;51.948;5.922;2024-02-21T10:39:33;8.70;;;4.50;;
57567;SDS011;43403;51.948;5.922;2024-02-21T10:42:00;8.75;;;4.75;;
57567;SDS011;43403;51.948;5.922;2024-02-21T10:44:34;6.35;;;4.30;;
57567;SDS011;43403;51.948;5.922;2024-02-21T10:47:00;7.57;;;4.68;;
57567;SDS011;43403;51.948;5.922;2024-02-21T10:49:29;8.38;;;4.93;;
57567;SDS011;43403;51.948;5.922;2024-02-21T10:59:30;11.95;;;5.40;;
57567;SDS011;43403;51.948;5.922;2024-02-21T11:01:58;9.65;;;5.55;;
57567;SDS011;43403;51.948;5.922;2024-02-21T11:04:25;8.85;;;5.32;;
57567;SDS011;43403;51.948;5.922;2024-02-21T11:06:52;10.98;;;5.78;;
57567;SDS011;43403;51.948;5.922;2024-02-21T11:09:29;13.00;;;6.55;;
57567;SDS011;43403;51.948;5.922;2024-02-21T11:11:55;9.25;;;5.40;;
57567;SDS011;43403;51.948;5.922;2024-02-21T11:14:22;9.80;;;5.28;;
57567;SDS011;43403;51.948;5.922;2024-02-21T11:16:48;12.00;;;6.00;;
57567;SDS011;43403;51.948;5.922;2024-02-21T11:21:45;9.38;;;5.10;;
57567;SDS011;43403;51.948;5.922;2024-02-21T11:24:11;12.77;;;5.70;;
57567;SDS011;43403;51.948;5.922;2024-02-21T11:26:38;11.45;;;5.75;;
57567;SDS011;43403;51.948;5.922;2024-02-21T11:29:04;12.13;;;5.68;;
57567;SDS011;43403;51.948;5.922;2024-02-21T11:31:41;9.02;;;5.53;;
57567;SDS011;43403;51.948;5.922;2024-02-21T11:34:09;10.23;;;5.63;;
57567;SDS011;43403;51.948;5.922;2024-02-21T11:36:36;14.73;;;6.63;;
57567;SDS011;43403;51.948;5.922;2024-02-21T11:39:03;8.50;;;5.18;;
57567;SDS011;43403;51.948;5.922;2024-02-21T11:41:31;13.47;;;5.77;;
57567;SDS011;43403;51.948;5.922;2024-02-21T11:43:57;9.55;;;5.90;;
57567;SDS011;43403;51.948;5.922;2024-02-21T11:46:24;13.38;;;5.88;;
57567;SDS011;43403;51.948;5.922;2024-02-21T11:48:50;9.95;;;5.85;;
57567;SDS011;43403;51.948;5.922;2024-02-21T11:51:26;11.35;;;5.95;;
57567;SDS011;43403;51.948;5.922;2024-02-21T11:53:54;9.75;;;5.35;;
57567;SDS011;43403;51.948;5.922;2024-02-21T11:56:27;13.20;;;4.95;;
57567;SDS011;43403;51.948;5.922;2024-02-21T11:58:54;11.30;;;5.53;;
57567;SDS011;43403;51.948;5.922;2024-02-21T12:01:20;12.30;;;5.28;;
57567;SDS011;43403;51.948;5.922;2024-02-21T12:03:47;9.88;;;5.57;;
57567;SDS011;43403;51.948;5.922;2024-02-21T12:06:16;12.98;;;5.63;;
57567;SDS011;43403;51.948;5.922;2024-02-21T12:08:46;11.05;;;5.78;;
57567;SDS011;43403;51.948;5.922;2024-02-21T12:11:31;11.68;;;5.85;;
57567;SDS011;43403;51.948;5.922;2024-02-21T12:14:01;11.30;;;5.38;;
57567;SDS011;43403;51.948;5.922;2024-02-21T12:16:29;10.05;;;5.00;;
57567;SDS011;43403;51.948;5.922;2024-02-21T12:18:57;9.95;;;4.50;;
57567;SDS011;43403;51.948;5.922;2024-02-21T12:21:26;10.25;;;5.03;;
57567;SDS011;43403;51.948;5.922;2024-02-21T12:23:55;10.40;;;4.75;;
57567;SDS011;43403;51.948;5.922;2024-02-21T12:26:21;9.98;;;4.78;;
57567;SDS011;43403;51.948;5.922;2024-02-21T12:28:48;13.20;;;4.88;;
57567;SDS011;43403;51.948;5.922;2024-02-21T12:31:15;13.13;;;5.15;;
57567;SDS011;43403;51.948;5.922;2024-02-21T12:33:43;7.35;;;4.45;;
57567;SDS011;43403;51.948;5.922;2024-02-21T12:36:09;13.35;;;4.82;;
57567;SDS011;43403;51.948;5.922;2024-02-21T12:38:36;9.43;;;4.55;;
57567;SDS011;43403;51.948;5.922;2024-02-21T12:41:02;13.15;;;4.85;;
57567;SDS011;43403;51.948;5.922;2024-02-21T12:43:29;11.52;;;5.10;;
57567;SDS011;43403;51.948;5.922;2024-02-21T12:45:56;8.15;;;4.18;;
57567;SDS011;43403;51.948;5.922;2024-02-21T12:48:22;8.85;;;4.20;;
57567;SDS011;43403;51.948;5.922;2024-02-21T12:50:49;7.43;;;4.05;;
57567;SDS011;43403;51.948;5.922;2024-02-21T12:53:19;7.18;;;3.80;;
57567;SDS011;43403;51.948;5.922;2024-02-21T12:58:23;7.55;;;4.13;;
57567;SDS011;43403;51.948;5.922;2024-02-21T13:00:50;8.48;;;4.22;;
57567;SDS011;43403;51.948;5.922;2024-02-21T13:03:17;9.27;;;4.53;;
57567;SDS011;43403;51.948;5.922;2024-02-21T13:05:43;7.15;;;4.05;;
57567;SDS011;43403;51.948;5.922;2024-02-21T13:08:10;8.50;;;4.07;;
57567;SDS011;43403;51.948;5.922;2024-02-21T13:10:38;12.23;;;4.10;;
57567;SDS011;43403;51.948;5.922;2024-02-21T13:13:04;9.80;;;4.30;;
57567;SDS011;43403;51.948;5.922;2024-02-21T13:15:30;10.10;;;4.40;;
57567;SDS011;43403;51.948;5.922;2024-02-21T13:17:57;12.77;;;4.43;;
57567;SDS011;43403;51.948;5.922;2024-02-21T13:20:26;11.55;;;4.60;;
57567;SDS011;43403;51.948;5.922;2024-02-21T13:22:54;8.23;;;3.90;;
57567;SDS011;43403;51.948;5.922;2024-02-21T13:25:21;9.65;;;4.22;;
57567;SDS011;43403;51.948;5.922;2024-02-21T13:27:48;9.20;;;4.25;;
57567;SDS011;43403;51.948;5.922;2024-02-21T13:30:15;10.85;;;4.40;;
57567;SDS011;43403;51.948;5.922;2024-02-21T13:32:44;10.15;;;3.88;;
57567;SDS011;43403;51.948;5.922;2024-02-21T13:35:14;9.57;;;4.22;;
57567;SDS011;43403;51.948;5.922;2024-02-21T13:37:41;9.05;;;3.78;;
57567;SDS011;43403;51.948;5.922;2024-02-21T13:40:08;11.02;;;4.28;;
57567;SDS011;43403;51.948;5.922;2024-02-21T13:42:37;9.63;;;3.85;;
57567;SDS011;43403;51.948;5.922;2024-02-21T13:45:04;8.25;;;3.67;;
57567;SDS011;43403;51.948;5.922;2024-02-21T13:47:35;8.82;;;3.72;;
57567;SDS011;43403;51.948;5.922;2024-02-21T13:50:07;10.73;;;4.25;;
57567;SDS011;43403;51.948;5.922;2024-02-21T13:52:37;9.27;;;3.88;;
57567;SDS011;43403;51.948;5.922;2024-02-21T13:55:04;7.40;;;3.95;;
57567;SDS011;43403;51.948;5.922;2024-02-21T13:57:30;9.38;;;4.18;;
57567;SDS011;43403;51.948;5.922;2024-02-21T13:59:57;8.52;;;4.00;;
57567;SDS011;43403;51.948;5.922;2024-02-21T14:02:23;11.02;;;3.97;;
57567;SDS011;43403;51.948;5.922;2024-02-21T14:04:49;9.38;;;4.63;;
57567;SDS011;43403;51.948;5.922;2024-02-21T14:07:17;9.20;;;3.63;;
57567;SDS011;43403;51.948;5.922;2024-02-21T14:09:43;10.20;;;3.95;;
57567;SDS011;43403;51.948;5.922;2024-02-21T14:12:10;9.57;;;3.75;;
57567;SDS011;43403;51.948;5.922;2024-02-21T14:14:36;9.95;;;3.97;;
57567;SDS011;43403;51.948;5.922;2024-02-21T14:17:05;8.15;;;4.35;;
57567;SDS011;43403;51.948;5.922;2024-02-21T14:19:32;7.80;;;3.85;;
57567;SDS011;43403;51.948;5.922;2024-02-21T14:21:59;8.15;;;3.13;;
57567;SDS011;43403;51.948;5.922;2024-02-21T14:24:25;8.25;;;3.05;;
57567;SDS011;43403;51.948;5.922;2024-02-21T14:29:21;8.43;;;3.10;;
57567;SDS011;43403;51.948;5.922;2024-02-21T14:31:47;8.25;;;3.35;;
57567;SDS011;43403;51.948;5.922;2024-02-21T14:34:14;6.68;;;3.08;;
57567;SDS011;43403;51.948;5.922;2024-02-21T14:36:41;9.38;;;3.10;;
57567;SDS011;43403;51.948;5.922;2024-02-21T14:39:07;9.55;;;3.70;;
57567;SDS011;43403;51.948;5.922;2024-02-21T14:41:34;7.78;;;3.22;;
57567;SDS011;43403;51.948;5.922;2024-02-21T14:44:01;10.38;;;3.00;;
57567;SDS011;43403;51.948;5.922;2024-02-21T14:46:30;6.78;;;3.08;;
57567;SDS011;43403;51.948;5.922;2024-02-21T14:48:57;7.82;;;3.08;;